Tiempo atmosférico en la estación meteorológica de La Rambla, Córdoba (200 m.)



Fecha
DESCASC
Temp. máxima en grados centígrados (hora)
DESCASC
Temp. mínima en grados centígrados (hora)
DESCASC
Temp. media en grados centígrados
DESCASC
Racha de viento máxima en m/sg (hora)
DESCASC
Velocidad máxima media en intervalos de 10 minutos(hora)
DESCASC
Precipitaciones diarias en mm
DESCASC
Precipitaciones de 00:00 a 06:00 en mm
DESCASC
Precipitaciones de 06:00 a 12:00 en mm
DESCASC
Precipitaciones de 12:00 a 18:00 en mm
DESCASC
Precipitaciones de 18:00 a 24:00 en mm
DESCASC
03-12-2020 15.9 (16:20) 4.2 (07:10) 10 6.94 (07:30) 4.72 (06:10) 0 0 0 0 0
02-12-2020 15.6 (15:50) 4.7 (08:30) 10.2 6.11 (21:40) 4.44 (23:10) 0.2 0 0.2 0 0
01-12-2020 17.7 (16:00) 7.3 (08:10) 12.5 4.72 (11:30) 2.78 (11:00) 0 0 0 0 0
30-11-2020 17.1 (16:40) 8.9 (00:00) 13 6.11 (12:40) 4.17 (12:40) 0 0 0 0 0
29-11-2020 16.5 (15:20) 10.8 (00:00) 13.7 5.83 (12:00) 3.61 (12:00) 0.4 0.4 0 0 0
28-11-2020 14.9 (16:00) 10 (00:00) 12.4 5.56 (12:20) 3.89 (12:20) 2.2 2 0.2 0 0
27-11-2020 11.4 (14:40) 8.8 (00:00) 10.1 7.5 (01:30) 5 (01:30) 15.6 15.2 0.2 0.2 0
26-11-2020 12.5 (15:40) 9.8 (00:00) 11.2 6.67 (07:20) 3.89 (07:30) 35.6 21.8 12.4 1.4 0
25-11-2020 20.1 (13:20) 9.6 (00:00) 14.9 28.89 (14:00) 9.17 (14:10) 12.4 0 0 4.2 8.2
24-11-2020 19.5 (15:50) 3.8 (00:00) 11.6 5.56 (11:00) 3.61 (17:20) 0 0 0 0 0
23-11-2020 19.8 (16:40) 3.7 (00:00) 11.7 5 (10:10) 2.78 (11:20) 0 0 0 0 0
22-11-2020 19.3 (15:50) 6.1 (00:00) 12.7 5.28 (11:30) 3.06 (11:50) 0 0 0 0 0
21-11-2020 21.7 (15:20) 6.7 (00:00) 14.2 6.11 (08:20) 3.33 (11:40) 0 0 0 0 0
20-11-2020 23.6 (15:40) 8.2 (00:00) 15.9 8.33 (15:00) 5.83 (15:00) 0 0 0 0 0
19-11-2020 25.8 (15:40) 9.2 (00:00) 17.5 7.5 (15:20) 4.44 (15:00) 0 0 0 0 0
18-11-2020 23.8 (16:30) 9.5 (00:00) 16.6 5 (11:30) 2.78 (12:40) 0 0 0 0 0
17-11-2020 23.1 (16:30) 11 (00:00) 17.1 5.83 (11:00) 3.89 (13:30) 0 0 0 0 0
16-11-2020 22.6 (16:30) 10.9 (00:00) 16.8 3.33 (15:40) 1.67 (03:10) 0 0 0 0 0
15-11-2020 24.5 (16:30) 11.9 (00:00) 18.2 5 (12:20) 3.33 (12:20) 0.2 0 0 0.2 0
14-11-2020 18.1 (17:00) 14.7 (00:00) 16.4 3.89 (15:30) 2.78 (15:20) 0.8 0 0 0.4 0.4
13-11-2020 22 (16:10) 9.1 (00:00) 15.6 5.28 (10:20) 2.78 (11:50) 0 0 0 0 0
12-11-2020 20.6 (16:20) 9.6 (00:00) 15.1 5.28 (11:20) 3.61 (11:20) 0 0 0 0 0
11-11-2020 21.3 (14:40) 8.9 (00:00) 15.1 3.89 (11:40) 2.5 (11:40) 0 0 0 0 0
10-11-2020 20.8 (16:00) 8.7 (00:00) 14.7 8.33 (13:20) 5.28 (13:20) 0.2 0 0 0.2 0
09-11-2020 19.8 (17:10) 10.2 (00:00) 15 3.61 (14:40) 1.94 (10:20) 0 0 0 0 0
08-11-2020 22.2 (15:50) 9.8 (00:00) 16 5.28 (13:50) 2.78 (13:50) 0.2 0 0.2 0 0
07-11-2020 20 (16:20) 11 (00:00) 15.5 15 (03:00) 7.78 (03:00) 8.2 5.4 2.8 0 0
06-11-2020 23.5 (15:50) 13.4 (00:00) 18.4 11.67 (22:10) 5.56 (22:10) 1.8 0 0 0 1.8

Gráficas

Temp. máximas Temp. mínimas Temp. medias Precipitaciones Rachas de viento máximas Velocidades máximas media en intervalos de 10 minutos

Datos horarios

Fecha y hora oficial Temperatura (ºC) Velocidad del viento (km/h) Dirección del viento Racha (km/h) Dirección de racha Precipitación (mm) Presión (hPa) Tendencia (hPa) Humedad (%)
2020-12-05 23:00:00 -- -- -- -- -- -- -- -- --
2020-12-05 22:00:00 -- -- -- -- -- -- -- -- --
2020-12-05 21:00:00 4.6 4 Sudeste 6 Sudeste 0 -- -- 93
2020-12-05 20:00:00 5.6 2 Sudeste 8 Sudeste 0 -- -- 88
2020-12-05 19:00:00 6.6 0 Calma 13 Sudoeste 0 -- -- 86
2020-12-05 18:00:00 8 13 Sudoeste 30 Sudoeste 0 -- -- 79
2020-12-05 17:00:00 9.7 19 Sudoeste 24 Sudoeste 0 -- -- 72
2020-12-05 16:00:00 10.1 15 Sudoeste 24 Sudoeste 0 -- -- 70
2020-12-05 15:00:00 9.8 14 Sudoeste 22 Oeste 0 -- -- 68
2020-12-05 14:00:00 9.6 12 Sudoeste 21 Sudoeste 0 -- -- 71
2020-12-05 13:00:00 8.7 9 Sudoeste 20 Oeste 0 -- -- 73
2020-12-05 12:00:00 8.3 10 Oeste 22 Sudoeste 0 -- -- 74
2020-12-05 11:00:00 6.6 11 Oeste 19 Oeste 0 -- -- 82
2020-12-05 10:00:00 5.6 8 Oeste 14 Oeste 0 -- -- 90
2020-12-05 09:00:00 4.2 3 Oeste 10 Oeste 0 -- -- 95
2020-12-05 08:00:00 4.2 2 Sudoeste 9 Oeste 0 -- -- 97
2020-12-05 07:00:00 3.9 5 Sur 13 Sudoeste 0 -- -- 97
2020-12-05 06:00:00 4.4 6 Sudoeste 14 Sudoeste 0 -- -- 95
2020-12-05 05:00:00 5.2 10 Oeste 19 Sudoeste 0 -- -- 94
2020-12-05 04:00:00 5.2 7 Oeste 20 Sudoeste 0 -- -- 95
2020-12-05 03:00:00 5.1 12 Sudoeste 20 Sudoeste 0 -- -- 95
2020-12-05 02:00:00 5.3 14 Sudoeste 23 Sudoeste 0 -- -- 94
2020-12-05 01:00:00 5.3 16 Sudoeste 23 Sudoeste 0 -- -- 94
2020-12-05 00:00:00 5.2 15 Sudoeste 23 Sudoeste 0 -- -- 94
2020-12-04 23:00:00 5.1 3 Sudoeste 13 Sudoeste 0 -- -- 95
2020-12-04 22:00:00 5.1 8 Sudoeste 18 Sudoeste 0 -- -- 93
2020-12-04 21:00:00 6 9 Sudoeste 18 Sudoeste 0 -- -- 91
2020-12-04 20:00:00 6.9 17 Sudoeste 23 Sudoeste 0 -- -- 91
2020-12-04 19:00:00 7.5 12 Sudoeste 22 Oeste 0 -- -- 87
2020-12-04 18:00:00 7.7 6 Oeste 29 Oeste 0.4 -- -- 89
2020-12-04 17:00:00 8.5 14 Oeste 30 Noroeste 0.8 -- -- 89
2020-12-04 16:00:00 8.7 23 Noroeste 41 Noroeste 0.6 -- -- 85
2020-12-04 15:00:00 10.4 23 Oeste 37 Noroeste 0.2 -- -- 84
2020-12-04 14:00:00 10.8 24 Oeste 45 Oeste 0.4 -- -- 87
2020-12-04 13:00:00 11.7 19 Oeste 37 Sudoeste 0 -- -- 86
2020-12-04 12:00:00 11 15 Oeste 44 Noroeste 0.6 -- -- 94
2020-12-04 11:00:00 10.8 32 Oeste 44 Oeste 1.8 -- -- 94
2020-12-04 10:00:00 11 24 Sudoeste 39 Sudoeste 0 -- -- 95
2020-12-04 09:00:00 10.2 25 Sudoeste 37 Sudoeste 0 -- -- 94
2020-12-04 08:00:00 9.6 13 Sudoeste 27 Sudoeste 0 -- -- 97
2020-12-04 07:00:00 9.1 18 Sudoeste 27 Sudoeste 0 -- -- 97
2020-12-04 06:00:00 8.6 17 Sudoeste 26 Sudoeste 0 -- -- 95
2020-12-04 05:00:00 8.3 18 Sudoeste 25 Sudoeste 0 -- -- 97
2020-12-04 04:00:00 7.8 7 Sur 12 Sur 0 -- -- 99
2020-12-04 03:00:00 7.5 4 Sur 8 Sur 0 -- -- 98
2020-12-04 02:00:00 6.7 2 Sur 12 Sur 0 -- -- 98
2020-12-04 01:00:00 7.2 9 Sur 13 Sur 0 -- -- 98
2020-12-04 00:00:00 6.2 3 Sudeste 8 Sur 0 -- -- 97
2020-12-03 23:00:00 5.8 0 Calma 2 Sudoeste 0 -- -- 93
2020-12-03 22:00:00 6.3 0 Calma 4 Norte 0 -- -- 92
2020-12-03 21:00:00 7.1 0 Calma 6 Norte 0 -- -- 89
2020-12-03 20:00:00 8.3 0 Calma 5 Este 0 -- -- 85
2020-12-03 19:00:00 10.2 2 Nordeste 5 Sudoeste 0 -- -- 80
2020-12-03 18:00:00 13.6 4 Oeste 15 Oeste 0 -- -- 65
2020-12-03 17:00:00 15.6 9 Sudoeste 15 Oeste 0 -- -- 56
2020-12-03 16:00:00 15.8 7 Sudoeste 14 Sudoeste 0 -- -- 53
2020-12-03 15:00:00 15.4 5 Sudoeste 11 Norte 0 -- -- 63
2020-12-03 14:00:00 13.1 6 Norte 10 Noroeste 0 -- -- 64
2020-12-03 13:00:00 11.4 4 Nordeste 17 Nordeste 0 -- -- 67
2020-12-03 12:00:00 9.7 12 Nordeste 19 Norte 0 -- -- 69
2020-12-03 11:00:00 8.1 9 Norte 21 Norte 0 -- -- 74
2020-12-03 10:00:00 6.1 7 Norte 21 Norte 0 -- -- 79
2020-12-03 09:00:00 4.8 11 Norte 23 Norte 0 -- -- 77
2020-12-03 08:00:00 5.7 10 Nordeste 25 Nordeste 0 -- -- 69
2020-12-03 07:00:00 4.5 5 Norte 25 Norte 0 -- -- 79
2020-12-03 06:00:00 5.5 13 Norte 23 Norte 0 -- -- 75
2020-12-03 05:00:00 5.9 11 Norte 21 Norte 0 -- -- 74
2020-12-03 04:00:00 5.7 12 Norte 21 Norte 0 -- -- 78
2020-12-03 03:00:00 5.8 10 Norte 23 Norte 0 -- -- 80
2020-12-03 02:00:00 7.2 9 Norte 18 Nordeste 0 -- -- 73
2020-12-03 01:00:00 7.3 9 Norte 16 Norte 0 -- -- 77
2020-12-03 00:00:00 8.1 10 Nordeste 21 Nordeste 0 -- -- 74
2020-12-02 23:00:00 9.5 14 Nordeste 20 Nordeste 0 -- -- 71
2020-12-02 22:00:00 10.7 14 Nordeste 22 Nordeste 0 -- -- 73
2020-12-02 21:00:00 11.1 14 Nordeste 18 Nordeste 0 -- -- 83
2020-12-02 20:00:00 10.2 2 Nordeste 6 Nordeste 0 -- -- 89
2020-12-02 19:00:00 12 2 Nordeste 5 Noroeste 0 -- -- 87
2020-12-02 18:00:00 14.6 0 Calma 13 Nordeste 0 -- -- 81
2020-12-02 17:00:00 15.2 10 Nordeste 16 Nordeste 0 -- -- 77
2020-12-02 16:00:00 15.5 9 Nordeste 15 Nordeste 0 -- -- 75
2020-12-02 15:00:00 15.1 6 Norte 14 Norte 0 -- -- 76
2020-12-02 14:00:00 14.2 9 Norte 16 Norte 0 -- -- 86
2020-12-02 13:00:00 12.5 6 Norte 14 Nordeste 0 -- -- 95
2020-12-02 12:00:00 10.1 4 Norte 15 Norte 0 -- -- 100
2020-12-02 11:00:00 7.6 8 Norte 16 Nordeste 0 -- -- 100
2020-12-02 10:00:00 6.4 6 Norte 13 Norte 0 -- -- 100
2020-12-02 09:00:00 5.2 6 Norte 12 Norte 0 -- -- 100
2020-12-02 08:00:00 5.2 5 Norte 10 Norte 0 -- -- 100
2020-12-02 07:00:00 5.7 3 Norte 12 Nordeste 0.2 -- -- 100
2020-12-02 06:00:00 6 6 Norte 19 Norte 0 -- -- 99
2020-12-02 05:00:00 6.5 2 Nordeste 10 Norte 0 -- -- 99
2020-12-02 04:00:00 6.5 4 Norte 10 Norte 0 -- -- 99
2020-12-02 03:00:00 6.7 4 Norte 6 Norte 0 -- -- 99
2020-12-02 02:00:00 6.8 0 Calma 3 Norte 0 -- -- 98
2020-12-02 01:00:00 7.5 0 Calma 5 Nordeste 0 -- -- 97
2020-12-02 00:00:00 8.3 2 Nordeste 5 Norte 0 -- -- 97
2020-12-01 23:00:00 8.8 0 Calma 5 Norte 0 -- -- 96
2020-12-01 22:00:00 9.3 3 Norte 6 Norte 0 -- -- 95
2020-12-01 21:00:00 10.1 0 Calma 4 Nordeste 0 -- -- 93
2020-12-01 20:00:00 11.5 0 Calma 6 Norte 0 -- -- 91
2020-12-01 19:00:00 13.1 3 Nordeste 5 Nordeste 0 -- -- 88
2020-12-01 18:00:00 15.7 4 Nordeste 9 Norte 0 -- -- 78
2020-12-01 17:00:00 17.5 4 Norte 9 Norte 0 -- -- 70
2020-12-01 16:00:00 17.7 3 Norte 8 Noroeste 0 -- -- 67
2020-12-01 15:00:00 16.8 5 Noroeste 10 Noroeste 0 -- -- 69
2020-12-01 14:00:00 16.3 6 Norte 15 Norte 0 -- -- 77
2020-12-01 13:00:00 15.3 8 Norte 16 Norte 0 -- -- 85
2020-12-01 12:00:00 13.1 7 Norte 17 Norte 0 -- -- 94
2020-12-01 11:00:00 10.9 10 Norte 16 Norte 0 -- -- 95
2020-12-01 10:00:00 9.7 5 Norte 12 Norte 0 -- -- 100
2020-12-01 09:00:00 7.4 4 Norte 15 Norte 0 -- -- 99
2020-12-01 08:00:00 7.4 3 Nordeste 6 Norte 0 -- -- 99
2020-12-01 07:00:00 8 4 Norte 8 Norte 0 -- -- 99
2020-12-01 06:00:00 8.4 6 Norte 12 Norte 0 -- -- 98
2020-12-01 05:00:00 8.7 4 Norte 11 Norte 0 -- -- 98
2020-12-01 04:00:00 8.9 6 Norte 11 Nordeste 0 -- -- 98
2020-12-01 03:00:00 8.9 4 Norte 12 Norte 0 -- -- 99
2020-12-01 02:00:00 8.6 4 Nordeste 7 Nordeste 0 -- -- 98
2020-12-01 01:00:00 8.6 3 Nordeste 6 Norte 0 -- -- 97
2020-12-01 00:00:00 9.1 3 Norte 6 Norte 0 -- -- 96
2020-11-30 23:00:00 9.6 4 Norte 8 Norte 0 -- -- 96
2020-11-30 22:00:00 9.6 3 Norte 6 Norte 0 -- -- 95
2020-11-30 21:00:00 10.3 4 Norte 6 Norte 0 -- -- 95
2020-11-30 20:00:00 11.4 0 Calma 5 Sudeste 0 -- -- 92
2020-11-30 19:00:00 13.3 0 Calma 9 Norte 0 -- -- 88
2020-11-30 18:00:00 15.2 4 Nordeste 10 Norte 0 -- -- 83
2020-11-30 17:00:00 16.8 6 Norte 14 Norte 0 -- -- 76
2020-11-30 16:00:00 16.4 9 Norte 14 Norte 0 -- -- 78
2020-11-30 15:00:00 16.1 9 Norte 19 Norte 0 -- -- 77
2020-11-30 14:00:00 16.6 7 Norte 15 Norte 0 -- -- 77
2020-11-30 13:00:00 14.5 14 Nordeste 22 Norte 0 -- -- 80
2020-11-30 12:00:00 13.2 8 Norte 18 Norte 0 -- -- 87
2020-11-30 11:00:00 11.6 5 Norte 17 Norte 0 -- -- 93
2020-11-30 10:00:00 9.8 8 Norte 14 Nordeste 0 -- -- 95
2020-11-30 09:00:00 9.2 3 Norte 10 Norte 0 -- -- 97
2020-11-30 08:00:00 9.1 4 Nordeste 13 Norte 0 -- -- 97
2020-11-30 07:00:00 9.2 4 Norte 15 Norte 0 -- -- 97
2020-11-30 06:00:00 9.2 3 Nordeste 10 Nordeste 0 -- -- 97
2020-11-30 05:00:00 9.6 4 Nordeste 9 Norte 0 -- -- 97
2020-11-30 04:00:00 10.2 3 Nordeste 8 Norte 0 -- -- 95
2020-11-30 03:00:00 10.9 0 Calma 13 Norte 0 -- -- 95
2020-11-30 02:00:00 11.4 9 Norte 14 Nordeste 0 -- -- 94
2020-11-30 01:00:00 11.7 2 Norte 9 Norte 0 -- -- 93
2020-11-30 00:00:00 12.2 3 Norte 9 Norte 0 -- -- 93
2020-11-29 23:00:00 12.2 3 Nordeste 6 Nordeste 0 -- -- 93
2020-11-29 22:00:00 12.9 3 Nordeste 9 Norte 0 -- -- 91
2020-11-29 21:00:00 13.6 4 Norte 9 Nordeste 0 -- -- 91
2020-11-29 20:00:00 13.9 0 Calma 7 Norte 0 -- -- 89
2020-11-29 19:00:00 14.5 4 Norte 6 Norte 0 -- -- 87
2020-11-29 18:00:00 15.6 3 Este 17 Nordeste 0 -- -- 83
2020-11-29 17:00:00 16.1 11 Nordeste 17 Nordeste 0 -- -- 81
2020-11-29 16:00:00 16.5 9 Nordeste 21 Nordeste 0 -- -- 76
2020-11-29 15:00:00 16.3 11 Nordeste 18 Nordeste 0 -- -- 80
2020-11-29 14:00:00 16.1 12 Nordeste 17 Nordeste 0 -- -- 76
2020-11-29 13:00:00 15.9 12 Nordeste 17 Nordeste 0 -- -- 80
2020-11-29 12:00:00 15.2 13 Norte 21 Norte 0 -- -- 86
2020-11-29 11:00:00 13.8 12 Norte 17 Norte 0 -- -- 87
2020-11-29 10:00:00 11.1 9 Norte 15 Norte 0 -- -- 94
2020-11-29 09:00:00 10.8 8 Norte 15 Norte 0 -- -- 95
2020-11-29 08:00:00 11 5 Norte 16 Nordeste 0 -- -- 94
2020-11-29 07:00:00 11 9 Norte 15 Norte 0 -- -- 94
2020-11-29 06:00:00 10.9 10 Norte 15 Norte 0.2 -- -- 96
2020-11-29 05:00:00 11.1 10 Norte 15 Norte 0 -- -- 95
2020-11-29 04:00:00 11.1 5 Norte 12 Norte 0 -- -- 96
2020-11-29 03:00:00 11.2 5 Norte 13 Norte 0 -- -- 95
2020-11-29 02:00:00 11.5 8 Norte 14 Norte 0.2 -- -- 94
2020-11-29 01:00:00 11.7 5 Norte 12 Este 0 -- -- 92
2020-11-29 00:00:00 12 9 Este 19 Sudeste 0 -- -- 91
2020-11-28 23:00:00 11.5 0 Calma 10 Este 0 -- -- 94
2020-11-28 22:00:00 11.7 0 Calma 5 Este 0 -- -- 95
2020-11-28 21:00:00 11.9 0 Calma 13 Sudeste 0 -- -- 95
2020-11-28 20:00:00 12.2 5 Sur 9 Sudoeste 0 -- -- 94
2020-11-28 19:00:00 12.2 0 Calma 5 Este 0 -- -- 92
2020-11-28 18:00:00 13.5 3 Este 4 Este 0 -- -- 87
2020-11-28 17:00:00 14.5 2 Sudeste 5 Oeste 0 -- -- 81
2020-11-28 16:00:00 14.9 0 Calma 9 Oeste 0 -- -- 82
2020-11-28 15:00:00 14.1 5 Oeste 13 Sudoeste 0 -- -- 83
2020-11-28 14:00:00 14.2 9 Sudoeste 14 Sudoeste 0 -- -- 84
2020-11-28 13:00:00 13.2 6 Sudoeste 20 Sudoeste 0 -- -- 84
2020-11-28 12:00:00 12.1 10 Sudoeste 13 Sudoeste 0 -- -- 92
2020-11-28 11:00:00 11.4 6 Sudoeste 9 Sur 0 -- -- 98
2020-11-28 10:00:00 10.7 3 Sudoeste 9 Sudoeste 0 -- -- 99
2020-11-28 09:00:00 10.1 0 Calma 2 Norte 0.2 -- -- 99
2020-11-28 08:00:00 10.5 3 Norte 5 Norte 0 -- -- 99
2020-11-28 07:00:00 10.3 0 Calma 3 Oeste 0 -- -- 99
2020-11-28 06:00:00 10.2 0 Calma 5 Sudeste 0.4 -- -- 99
2020-11-28 05:00:00 10.1 0 Calma 2 Sudeste 1.4 -- -- 98
2020-11-28 04:00:00 10 0 Calma 3 Sur 0.2 -- -- 98
2020-11-28 03:00:00 10 3 Sur 6 Sur 0 -- -- 98
2020-11-28 02:00:00 10.1 2 Sudoeste 5 Sudeste 0 -- -- 98
2020-11-28 01:00:00 10.1 2 Sur 6 Sur 0 -- -- 97
2020-11-28 00:00:00 10.2 2 Sur 6 Sudeste 0 -- -- 96
2020-11-27 23:00:00 10.3 5 Sur 8 Sur 0 -- -- 96
2020-11-27 22:00:00 10.4 0 Calma 3 Sur 0 -- -- 96
2020-11-27 21:00:00 10.3 4 Sudeste 6 Sur 0 -- -- 96
2020-11-27 20:00:00 10.5 3 Sur 6 Sudeste 0 -- -- 95
2020-11-27 19:00:00 10.6 4 Sur 10 Sudoeste 0 -- -- 93
2020-11-27 18:00:00 10.9 4 Sudoeste 14 Sudoeste 0 -- -- 90
2020-11-27 17:00:00 11.3 8 Sudoeste 12 Sudoeste 0 -- -- 87
2020-11-27 16:00:00 11.3 6 Sudoeste 11 Sudoeste 0 -- -- 88
2020-11-27 15:00:00 11.1 8 Sudoeste 14 Sudoeste 0.2 -- -- 90
2020-11-27 14:00:00 11.3 5 Sudoeste 11 Sudoeste 0 -- -- 85
2020-11-27 13:00:00 10.9 6 Sudoeste 13 Sur 0 -- -- 87
2020-11-27 12:00:00 10.6 7 Sudoeste 13 Sudoeste 0 -- -- 92
2020-11-27 11:00:00 9.8 7 Sudoeste 13 Sudoeste 0 -- -- 98
2020-11-27 10:00:00 9.3 9 Sudoeste 12 Sudoeste 0 -- -- 99
2020-11-27 09:00:00 8.9 4 Sudoeste 8 Sudoeste 0 -- -- 99
2020-11-27 08:00:00 8.8 0 Calma 3 Sudeste 0.2 -- -- 98
2020-11-27 07:00:00 8.9 0 Calma 4 Nordeste 0 -- -- 98
2020-11-27 06:00:00 9 2 Norte 10 Nordeste 1.6 -- -- 98
2020-11-27 05:00:00 9 7 Nordeste 11 Nordeste 1.4 -- -- 97
2020-11-27 04:00:00 9.2 4 Norte 26 Nordeste 4.8 -- -- 97
2020-11-27 03:00:00 9.5 15 Nordeste 26 Nordeste 5.6 -- -- 96
2020-11-27 02:00:00 10 12 Nordeste 27 Nordeste 1.6 -- -- 96
2020-11-27 01:00:00 10.2 15 Nordeste 22 Nordeste 0.2 -- -- 95
2020-11-27 00:00:00 10.2 7 Norte 10 Nordeste 0 -- -- 93
2020-11-26 23:00:00 9.9 3 Este 12 Sudoeste 0 -- -- 91
2020-11-26 22:00:00 10.7 6 Sudoeste 17 Sudoeste 0 -- -- 92
2020-11-26 21:00:00 11.1 5 Norte 12 Nordeste 0 -- -- 94
2020-11-26 20:00:00 11.3 8 Norte 12 Norte 0 -- -- 94
2020-11-26 19:00:00 11.5 3 Norte 8 Nordeste 0 -- -- 93
2020-11-26 18:00:00 12 3 Nordeste 9 Sudeste 0.2 -- -- 89
2020-11-26 17:00:00 12.1 3 Este 20 Sudeste 0 -- -- 88
2020-11-26 16:00:00 12.5 10 Sudeste 17 Sudeste 0 -- -- 87
2020-11-26 15:00:00 12.1 6 Sudeste 10 Sudeste 0.2 -- -- 90
2020-11-26 14:00:00 11.4 4 Sur 13 Sur 0 -- -- 93
2020-11-26 13:00:00 11.1 0 Calma 5 Sudoeste 1 -- -- 95
2020-11-26 12:00:00 11 0 Calma 12 Sudoeste 1.2 -- -- 95
2020-11-26 11:00:00 10.8 5 Este 22 Este 3.8 -- -- 96
2020-11-26 10:00:00 11.1 12 Sudeste 21 Sudeste 2 -- -- 95
2020-11-26 09:00:00 11.2 9 Este 22 Este 2 -- -- 96
2020-11-26 08:00:00 11.1 10 Este 24 Nordeste 2.2 -- -- 97
2020-11-26 07:00:00 11 13 Nordeste 23 Este 1.2 -- -- 98
2020-11-26 06:00:00 10.9 9 Este 15 Este 2 -- -- 98
2020-11-26 05:00:00 11 4 Este 11 Este 3.4 -- -- 98
2020-11-26 04:00:00 11.1 3 Este 8 Sudeste 5.2 -- -- 98
2020-11-26 03:00:00 11.2 4 Este 13 Norte 9.4 -- -- 97
2020-11-26 02:00:00 11.3 9 Norte 17 Norte 1.2 -- -- 97
2020-11-26 01:00:00 11.4 9 Norte 21 Nordeste 0.6 -- -- 95
2020-11-26 00:00:00 11.5 6 Este 19 Nordeste 0.2 -- -- 95
2020-11-25 23:00:00 11.5 6 Nordeste 12 Nordeste 2.2 -- -- 96
2020-11-25 22:00:00 11.8 2 Noroeste 16 Sur 1 -- -- 94
2020-11-25 21:00:00 11.9 9 Sudeste 24 Sudeste 0.6 -- -- 94
2020-11-25 20:00:00 12 14 Este 25 Sudeste 0.8 -- -- 96
2020-11-25 19:00:00 12.2 8 Este 12 Este 3.4 -- -- 96
2020-11-25 18:00:00 12.6 4 Sur 9 Sur 1.4 -- -- 95
2020-11-25 17:00:00 12.8 3 Sudeste 12 Sur 0.2 -- -- 93
2020-11-25 16:00:00 12.9 10 Sur 23 Sudoeste 0.6 -- -- 93
2020-11-25 15:00:00 13.7 12 Sur 64 Oeste 2 -- -- 89
2020-11-25 14:00:00 19 31 Sur 104 Sudoeste 0 -- -- 58
2020-11-25 13:00:00 19.6 15 Sur 30 Sudeste 0 -- -- 59
2020-11-25 12:00:00 17.1 10 Sur 21 Sur 0 -- -- 68
2020-11-25 11:00:00 14.8 4 Sur 14 Este 0 -- -- 76
2020-11-25 10:00:00 12.4 0 Calma 4 Norte 0 -- -- 86
2020-11-25 09:00:00 9.7 2 Nordeste 3 Norte 0 -- -- 91
2020-11-25 08:00:00 10.1 2 Nordeste 4 Nordeste 0 -- -- 88
2020-11-25 07:00:00 11.1 0 Calma 4 Este 0 -- -- 88
2020-11-25 06:00:00 10.9 0 Calma 7 Sudoeste 0 -- -- 89
2020-11-25 05:00:00 10.8 6 Sudoeste 8 Sur 0 -- -- 88
2020-11-25 04:00:00 11 4 Sudoeste 9 Sudoeste 0 -- -- 86
2020-11-25 03:00:00 10.6 4 Sudoeste 10 Sudoeste 0 -- -- 87
2020-11-25 02:00:00 11.6 4 Sudoeste 6 Sudoeste 0 -- -- 84
2020-11-25 01:00:00 11.9 0 Calma 4 Norte 0 -- -- 80
2020-11-25 00:00:00 12.2 0 Calma 7 Norte 0 -- -- 77
2020-11-24 23:00:00 12.7 3 Norte 8 Noroeste 0 -- -- 69
2020-11-24 22:00:00 12.7 0 Calma 3 Norte 0 -- -- 68
2020-11-24 21:00:00 12.2 0 Calma 6 Norte 0 -- -- 68
2020-11-24 20:00:00 11.3 3 Norte 6 Norte 0 -- -- 69
2020-11-24 19:00:00 12.8 2 Nordeste 8 Nordeste 0 -- -- 64
2020-11-24 18:00:00 15.5 7 Noroeste 18 Noroeste 0 -- -- 59
2020-11-24 17:00:00 17.8 12 Noroeste 19 Noroeste 0 -- -- 54
2020-11-24 16:00:00 19.2 3 Noroeste 13 Noroeste 0 -- -- 49
2020-11-24 15:00:00 18.4 6 Noroeste 14 Oeste 0 -- -- 50
2020-11-24 14:00:00 17.1 3 Norte 12 Norte 0 -- -- 54
2020-11-24 13:00:00 15.4 6 Norte 16 Norte 0 -- -- 58
2020-11-24 12:00:00 12.9 9 Norte 20 Norte 0 -- -- 64
2020-11-24 11:00:00 9.6 11 Norte 20 Norte 0 -- -- 76
2020-11-24 10:00:00 6.8 9 Norte 18 Norte 0 -- -- 84
2020-11-24 09:00:00 4.9 8 Norte 16 Nordeste 0 -- -- 88
2020-11-24 08:00:00 4 8 Norte 18 Norte 0 -- -- 91
2020-11-24 07:00:00 3.9 9 Norte 14 Norte 0 -- -- 91
2020-11-24 06:00:00 4.6 8 Norte 14 Nordeste 0 -- -- 87
2020-11-24 05:00:00 4.8 6 Norte 12 Norte 0 -- -- 87
2020-11-24 04:00:00 3.8 3 Norte 8 Norte 0 -- -- 88
2020-11-24 03:00:00 4.8 3 Nordeste 8 Norte 0 -- -- 85
2020-11-24 02:00:00 6 5 Norte 12 Nordeste 0 -- -- 87
2020-11-24 01:00:00 5.2 2 Norte 8 Norte 0 -- -- 85
2020-11-24 00:00:00 5.5 3 Nordeste 6 Norte 0 -- -- 83
2020-11-23 23:00:00 7 4 Norte 8 Norte 0 -- -- 85
2020-11-23 22:00:00 7.6 0 Calma 7 Sudeste 0 -- -- 76
2020-11-23 21:00:00 9.1 3 Sur 6 Sur 0 -- -- 72
2020-11-23 20:00:00 9.8 2 Noroeste 6 Norte 0 -- -- 66
2020-11-23 19:00:00 12.6 2 Nordeste 6 Este 0 -- -- 59
2020-11-23 18:00:00 17 3 Sudeste 9 Norte 0 -- -- 50
2020-11-23 17:00:00 19.2 3 Norte 9 Sur 0 -- -- 47
2020-11-23 16:00:00 19.5 3 Sudoeste 13 Sudeste 0 -- -- 46
2020-11-23 15:00:00 19 5 Este 15 Sur 0 -- -- 45
2020-11-23 14:00:00 17.8 4 Este 9 Sudeste 0 -- -- 47
2020-11-23 13:00:00 15.5 2 Sur 12 Norte 0 -- -- 53
2020-11-23 12:00:00 13.2 8 Norte 16 Norte 0 -- -- 64
2020-11-23 11:00:00 10 9 Norte 18 Norte 0 -- -- 75
2020-11-23 10:00:00 8.3 8 Norte 16 Norte 0 -- -- 83
2020-11-23 09:00:00 5 6 Norte 11 Norte 0 -- -- 93
2020-11-23 08:00:00 3.8 3 Norte 12 Noroeste 0 -- -- 93
2020-11-23 07:00:00 4.3 5 Norte 13 Norte 0 -- -- 92
2020-11-23 06:00:00 4.2 4 Norte 10 Norte 0 -- -- 91
2020-11-23 05:00:00 5.1 6 Norte 13 Nordeste 0 -- -- 91
2020-11-23 04:00:00 5.6 4 Nordeste 10 Norte 0 -- -- 89
2020-11-23 03:00:00 5.2 3 Norte 9 Norte 0 -- -- 92
2020-11-23 02:00:00 4.4 0 Calma 8 Norte 0 -- -- 87
2020-11-23 01:00:00 5.1 0 Calma 7 Norte 0 -- -- 84
2020-11-23 00:00:00 6.4 0 Calma 9 Norte 0 -- -- 83
2020-11-22 23:00:00 6.4 3 Norte 6 Norte 0 -- -- 82
2020-11-22 22:00:00 7.6 0 Calma 7 Norte 0 -- -- 76
2020-11-22 21:00:00 9 4 Norte 6 Norte 0 -- -- 71
2020-11-22 20:00:00 11.2 0 Calma 13 Sudoeste 0 -- -- 65
2020-11-22 19:00:00 13.5 0 Calma 12 Nordeste 0 -- -- 56
2020-11-22 18:00:00 17 10 Nordeste 15 Norte 0 -- -- 50
2020-11-22 17:00:00 18.7 6 Nordeste 15 Norte 0 -- -- 45
2020-11-22 16:00:00 19.2 3 Norte 17 Norte 0 -- -- 45
2020-11-22 15:00:00 18.7 7 Norte 17 Nordeste 0 -- -- 45
2020-11-22 14:00:00 17.8 5 Norte 14 Norte 0 -- -- 51
2020-11-22 13:00:00 16.7 9 Norte 15 Norte 0 -- -- 58
2020-11-22 12:00:00 15.2 10 Norte 19 Norte 0 -- -- 64
2020-11-22 11:00:00 13.7 9 Norte 17 Nordeste 0 -- -- 72
2020-11-22 10:00:00 11.1 8 Norte 15 Norte 0 -- -- 82
2020-11-22 09:00:00 8.1 8 Norte 13 Norte 0 -- -- 92
2020-11-22 08:00:00 7.1 5 Norte 12 Norte 0 -- -- 92
2020-11-22 07:00:00 7.5 4 Norte 12 Norte 0 -- -- 91
2020-11-22 06:00:00 7.9 6 Norte 10 Norte 0 -- -- 91
2020-11-22 05:00:00 7.7 4 Norte 10 Este 0 -- -- 91
2020-11-22 04:00:00 7.8 2 Este 9 Norte 0 -- -- 87
2020-11-22 03:00:00 8.8 4 Norte 9 Norte 0 -- -- 87
2020-11-22 02:00:00 9.1 4 Norte 8 Norte 0 -- -- 85
2020-11-22 01:00:00 9.2 3 Nordeste 8 Nordeste 0 -- -- 85
2020-11-22 00:00:00 9.4 0 Calma 10 Este 0 -- -- 82
2020-11-21 23:00:00 9.7 0 Calma 5 Este 0 -- -- 79
2020-11-21 22:00:00 10.3 0 Calma 6 Este 0 -- -- 76
2020-11-21 21:00:00 10.7 0 Calma 2 Este 0 -- -- 72
2020-11-21 20:00:00 12.6 0 Calma 10 Sur 0 -- -- 69
2020-11-21 19:00:00 15.3 2 Este 9 Sudoeste 0 -- -- 63
2020-11-21 18:00:00 19.1 5 Sudoeste 11 Sudoeste 0 -- -- 57
2020-11-21 17:00:00 20.9 8 Sur 15 Sur 0 -- -- 50
2020-11-21 16:00:00 21.5 4 Sudoeste 12 Sudoeste 0 -- -- 50
2020-11-21 15:00:00 20.8 3 Sudeste 11 Nordeste 0 -- -- 53
2020-11-21 14:00:00 18.9 8 Nordeste 17 Nordeste 0 -- -- 57
2020-11-21 13:00:00 18.8 9 Norte 19 Norte 0 -- -- 56
2020-11-21 12:00:00 16.3 10 Norte 19 Norte 0 -- -- 60
2020-11-21 11:00:00 14.2 9 Norte 17 Nordeste 0 -- -- 60
2020-11-21 10:00:00 11.4 7 Norte 17 Norte 0 -- -- 66
2020-11-21 09:00:00 8.9 8 Norte 22 Norte 0 -- -- 71
2020-11-21 08:00:00 7.8 9 Norte 18 Norte 0 -- -- 73
2020-11-21 07:00:00 7.3 7 Norte 17 Nordeste 0 -- -- 73
2020-11-21 06:00:00 7.8 4 Norte 14 Norte 0 -- -- 71
2020-11-21 05:00:00 8 6 Norte 13 Norte 0 -- -- 70
2020-11-21 04:00:00 8 0 Calma 9 Nordeste 0 -- -- 71
2020-11-21 03:00:00 7.4 4 Nordeste 10 Norte 0 -- -- 72
2020-11-21 02:00:00 6.9 2 Nordeste 5 Nordeste 0 -- -- 72
2020-11-21 01:00:00 8.1 3 Norte 9 Norte 0 -- -- 67
2020-11-21 00:00:00 9.6 0 Calma 13 Este 0 -- -- 62
2020-11-20 23:00:00 12 4 Nordeste 15 Nordeste 0 -- -- 55
2020-11-20 22:00:00 11 6 Nordeste 10 Nordeste 0 -- -- 60
2020-11-20 21:00:00 11.1 8 Norte 11 Norte 0 -- -- 59
2020-11-20 20:00:00 13.2 4 Este 9 Este 0 -- -- 53
2020-11-20 19:00:00 15.8 5 Nordeste 8 Este 0 -- -- 46
2020-11-20 18:00:00 21 3 Nordeste 24 Nordeste 0 -- -- 34
2020-11-20 17:00:00 23 14 Nordeste 27 Nordeste 0 -- -- 30
2020-11-20 16:00:00 23.5 17 Nordeste 30 Nordeste 0 -- -- 29
2020-11-20 15:00:00 23.3 21 Nordeste 30 Nordeste 0 -- -- 32
2020-11-20 14:00:00 22.2 12 Nordeste 26 Nordeste 0 -- -- 41
2020-11-20 13:00:00 20.3 12 Nordeste 22 Nordeste 0 -- -- 53
2020-11-20 12:00:00 18.5 13 Nordeste 22 Nordeste 0 -- -- 61
2020-11-20 11:00:00 15.9 11 Nordeste 19 Nordeste 0 -- -- 70
2020-11-20 10:00:00 13.7 4 Norte 8 Norte 0 -- -- 89
2020-11-20 09:00:00 10.3 3 Norte 12 Nordeste 0 -- -- 97
2020-11-20 08:00:00 8.2 5 Norte 9 Norte 0 -- -- 95
2020-11-20 07:00:00 9.1 4 Nordeste 10 Norte 0 -- -- 95
2020-11-20 06:00:00 9.2 5 Norte 9 Norte 0 -- -- 94
2020-11-20 05:00:00 9.5 4 Norte 8 Norte 0 -- -- 94
2020-11-20 04:00:00 9.6 5 Norte 9 Norte 0 -- -- 92
2020-11-20 03:00:00 9.6 0 Calma 9 Norte 0 -- -- 90
2020-11-20 02:00:00 10 5 Norte 8 Norte 0 -- -- 91
2020-11-20 01:00:00 10.4 4 Nordeste 8 Norte 0 -- -- 89
2020-11-20 00:00:00 11.1 0 Calma 8 Norte 0 -- -- 84
2020-11-19 23:00:00 11.5 6 Norte 9 Norte 0 -- -- 84
2020-11-19 22:00:00 12.6 0 Calma 5 Norte 0 -- -- 79
2020-11-19 21:00:00 13.9 3 Nordeste 7 Norte 0 -- -- 74
2020-11-19 20:00:00 15.8 0 Calma 8 Este 0 -- -- 69
2020-11-19 19:00:00 18.6 3 Este 6 Este 0 -- -- 60
2020-11-19 18:00:00 23.4 3 Sur 14 Nordeste 0 -- -- 47
2020-11-19 17:00:00 25.4 7 Nordeste 22 Nordeste 0 -- -- 41
2020-11-19 16:00:00 25.8 12 Nordeste 27 Nordeste 0 -- -- 38
2020-11-19 15:00:00 25.2 16 Nordeste 26 Nordeste 0 -- -- 40
2020-11-19 14:00:00 23.4 6 Este 16 Este 0 -- -- 47
2020-11-19 13:00:00 22.3 9 Este 18 Nordeste 0 -- -- 49
2020-11-19 12:00:00 18.9 6 Noroeste 14 Noroeste 0 -- -- 64
2020-11-19 11:00:00 15.5 8 Norte 14 Norte 0 -- -- 75
2020-11-19 10:00:00 13.1 7 Norte 12 Norte 0 -- -- 86
2020-11-19 09:00:00 10.3 6 Norte 12 Norte 0 -- -- 94
2020-11-19 08:00:00 9.3 5 Norte 13 Norte 0 -- -- 94
2020-11-19 07:00:00 9.9 6 Norte 14 Norte 0 -- -- 92
2020-11-19 06:00:00 9.9 4 Norte 9 Norte 0 -- -- 92
2020-11-19 05:00:00 10 3 Norte 10 Nordeste 0 -- -- 92
2020-11-19 04:00:00 9.8 3 Nordeste 8 Norte 0 -- -- 93
2020-11-19 03:00:00 10.1 4 Norte 8 Norte 0 -- -- 93
2020-11-19 02:00:00 10.5 4 Norte 6 Norte 0 -- -- 91
2020-11-19 01:00:00 11.2 2 Este 7 Norte 0 -- -- 89
2020-11-19 00:00:00 11.9 4 Nordeste 9 Norte 0 -- -- 89
2020-11-18 23:00:00 12.5 5 Norte 7 Norte 0 -- -- 88
2020-11-18 22:00:00 12.6 3 Este 6 Norte 0 -- -- 82
2020-11-18 21:00:00 13.4 3 Este 6 Norte 0 -- -- 79
2020-11-18 20:00:00 15 2 Norte 5 Norte 0 -- -- 75
2020-11-18 19:00:00 17.3 2 Sudoeste 9 Sudoeste 0 -- -- 68
2020-11-18 18:00:00 22 3 Sudeste 6 Norte 0 -- -- 57
2020-11-18 17:00:00 23.5 5 Nordeste 12 Nordeste 0 -- -- 49
2020-11-18 16:00:00 23.7 5 Nordeste 12 Nordeste 0 -- -- 46
2020-11-18 15:00:00 23.5 6 Este 13 Este 0 -- -- 52
2020-11-18 14:00:00 21.5 5 Nordeste 15 Nordeste 0 -- -- 58
2020-11-18 13:00:00 19.7 10 Nordeste 16 Norte 0 -- -- 64
2020-11-18 12:00:00 17.6 8 Norte 18 Norte 0 -- -- 74
2020-11-18 11:00:00 15.6 9 Norte 15 Norte 0 -- -- 84
2020-11-18 10:00:00 13.2 6 Norte 13 Norte 0 -- -- 94
2020-11-18 09:00:00 10.7 6 Norte 13 Norte 0 -- -- 97
2020-11-18 08:00:00 9.8 3 Norte 9 Nordeste 0 -- -- 96
2020-11-18 07:00:00 10.6 6 Norte 14 Norte 0 -- -- 97
2020-11-18 06:00:00 11.2 7 Norte 14 Nordeste 0 -- -- 96
2020-11-18 05:00:00 11.5 5 Norte 15 Norte 0 -- -- 96
2020-11-18 04:00:00 11.9 9 Norte 14 Norte 0 -- -- 95
2020-11-18 03:00:00 12.4 4 Norte 11 Norte 0 -- -- 96
2020-11-18 02:00:00 12.6 6 Norte 12 Nordeste 0 -- -- 96
2020-11-18 01:00:00 11.9 4 Norte 8 Norte 0 -- -- 97
2020-11-18 00:00:00 11.6 4 Norte 5 Norte 0 -- -- 94
2020-11-17 23:00:00 12.2 3 Norte 4 Norte 0 -- -- 92
2020-11-17 22:00:00 12.9 2 Nordeste 4 Norte 0 -- -- 90
2020-11-17 21:00:00 13.8 0 Calma 4 Norte 0 -- -- 86
2020-11-17 20:00:00 15.6 2 Este 5 Norte 0 -- -- 84
2020-11-17 19:00:00 17.6 3 Este 8 Norte 0 -- -- 76
2020-11-17 18:00:00 21.2 4 Norte 8 Norte 0 -- -- 69
2020-11-17 17:00:00 22.9 3 Norte 10 Noroeste 0 -- -- 62
2020-11-17 16:00:00 22.9 6 Norte 15 Norte 0 -- -- 65
2020-11-17 15:00:00 22.2 6 Norte 17 Nordeste 0 -- -- 69
2020-11-17 14:00:00 21 10 Nordeste 20 Nordeste 0 -- -- 76
2020-11-17 13:00:00 19.2 9 Norte 20 Nordeste 0 -- -- 83
2020-11-17 12:00:00 16.7 9 Norte 21 Norte 0 -- -- 91
2020-11-17 11:00:00 14.4 11 Norte 21 Nordeste 0 -- -- 100
2020-11-17 10:00:00 12.5 10 Norte 20 Norte 0 -- -- 100
2020-11-17 09:00:00 11.4 9 Norte 16 Norte 0 -- -- 100
2020-11-17 08:00:00 11.6 6 Norte 18 Norte 0 -- -- 100
2020-11-17 07:00:00 11.3 6 Norte 12 Norte 0 -- -- 99
2020-11-17 06:00:00 11.6 2 Norte 8 Norte 0 -- -- 99
2020-11-17 05:00:00 12 4 Nordeste 9 Norte 0 -- -- 100
2020-11-17 04:00:00 12.1 3 Norte 7 Nordeste 0 -- -- 99
2020-11-17 03:00:00 11.7 0 Calma 5 Norte 0 -- -- 99
2020-11-17 02:00:00 11 0 Calma 3 Norte 0 -- -- 97
2020-11-17 01:00:00 12.2 3 Norte 5 Norte 0 -- -- 96
2020-11-17 00:00:00 12.8 2 Norte 7 Norte 0 -- -- 95
2020-11-16 23:00:00 13 0 Calma 6 Norte 0 -- -- 94
2020-11-16 22:00:00 14.1 0 Calma 3 Sur 0 -- -- 92
2020-11-16 21:00:00 15 2 Nordeste 6 Norte 0 -- -- 92
2020-11-16 20:00:00 16.1 0 Calma 4 Nordeste 0 -- -- 88
2020-11-16 19:00:00 18.1 2 Este 4 Este 0 -- -- 81
2020-11-16 18:00:00 21.3 3 Sudoeste 6 Sudoeste 0 -- -- 74
2020-11-16 17:00:00 22.4 4 Sudoeste 9 Sudoeste 0 -- -- 70
2020-11-16 16:00:00 21.9 0 Calma 12 Noroeste 0 -- -- 73
2020-11-16 15:00:00 21.6 0 Calma 9 Sudoeste 0 -- -- 76
2020-11-16 14:00:00 20.1 5 Oeste 10 Oeste 0 -- -- 83
2020-11-16 13:00:00 18.3 4 Oeste 6 Oeste 0 -- -- 90
2020-11-16 12:00:00 17 2 Sudoeste 4 Sudoeste 0 -- -- 97
2020-11-16 11:00:00 16 0 Calma 3 Sudoeste 0 -- -- 98
2020-11-16 10:00:00 14.6 0 Calma 3 Norte 0 -- -- 99
2020-11-16 09:00:00 12.6 2 Norte 4 Norte 0 -- -- 99
2020-11-16 08:00:00 11.1 3 Norte 6 Norte 0 -- -- 98
2020-11-16 07:00:00 11.2 2 Sudeste 5 Sudeste 0 -- -- 98
2020-11-16 06:00:00 11.3 2 Sudeste 6 Norte 0 -- -- 97
2020-11-16 05:00:00 11.5 0 Calma 8 Norte 0 -- -- 95
2020-11-16 04:00:00 12.8 0 Calma 9 Norte 0 -- -- 95
2020-11-16 03:00:00 13.2 3 Nordeste 8 Norte 0 -- -- 95
2020-11-16 02:00:00 13.4 2 Nordeste 7 Este 0 -- -- 95
2020-11-16 01:00:00 14.2 0 Calma 6 Norte 0 -- -- 94
2020-11-16 00:00:00 14.5 0 Calma 6 Norte 0 -- -- 92
2020-11-15 23:00:00 15.4 4 Norte 5 Norte 0 -- -- 91
2020-11-15 22:00:00 16.7 2 Nordeste 7 Nordeste 0 -- -- 89
2020-11-15 21:00:00 17.5 3 Norte 10 Norte 0 -- -- 87
2020-11-15 20:00:00 18 4 Norte 6 Norte 0 -- -- 88
2020-11-15 19:00:00 19.2 4 Norte 10 Nordeste 0 -- -- 85
2020-11-15 18:00:00 21.3 9 Norte 13 Norte 0 -- -- 79
2020-11-15 17:00:00 24 3 Oeste 12 Oeste 0 -- -- 63
2020-11-15 16:00:00 23.5 3 Norte 13 Norte 0 -- -- 66
2020-11-15 15:00:00 22.4 8 Norte 15 Norte 0 -- -- 74
2020-11-15 14:00:00 21.9 8 Norte 15 Nordeste 0.2 -- -- 77
2020-11-15 13:00:00 19.9 10 Nordeste 18 Nordeste 0 -- -- 80
2020-11-15 12:00:00 18.5 8 Norte 15 Norte 0 -- -- 92
2020-11-15 11:00:00 16.8 8 Norte 14 Norte 0 -- -- 97
2020-11-15 10:00:00 15.2 5 Norte 13 Norte 0 -- -- 100
2020-11-15 09:00:00 12.8 2 Norte 5 Norte 0 -- -- 100
2020-11-15 08:00:00 12.1 0 Calma 3 Este 0 -- -- 99
2020-11-15 07:00:00 12.3 0 Calma 5 Este 0 -- -- 99
2020-11-15 06:00:00 13 3 Este 6 Norte 0 -- -- 98
2020-11-15 05:00:00 13.4 3 Norte 7 Norte 0 -- -- 99
2020-11-15 04:00:00 14 4 Este 6 Nordeste 0 -- -- 98
2020-11-15 03:00:00 14.9 0 Calma 3 Norte 0 -- -- 97
2020-11-15 02:00:00 15.5 0 Calma 2 Norte 0 -- -- 98
2020-11-15 01:00:00 15.5 2 Noroeste 5 Sudeste 0 -- -- 98
2020-11-15 00:00:00 15.3 0 Calma 5 Norte 0 -- -- 98
2020-11-14 23:00:00 15.6 4 Sudeste 5 Sudeste 0 -- -- 97
2020-11-14 22:00:00 15.6 0 Calma 2 Norte 0 -- -- 97
2020-11-14 21:00:00 15.7 0 Calma 6 Sudeste 0 -- -- 97
2020-11-14 20:00:00 16 0 Calma 5 Sudeste 0 -- -- 96
2020-11-14 19:00:00 16.8 0 Calma 9 Oeste 0.4 -- -- 95
2020-11-14 18:00:00 17.6 4 Oeste 10 Oeste 0 -- -- 92
2020-11-14 17:00:00 18.1 7 Sudoeste 13 Sur 0 -- -- 90
2020-11-14 16:00:00 17.9 9 Sur 14 Sur 0 -- -- 92
2020-11-14 15:00:00 17.4 7 Sur 12 Sur 0.2 -- -- 94
2020-11-14 14:00:00 16.8 2 Sudeste 7 Sudoeste 0.2 -- -- 93
2020-11-14 13:00:00 17.1 7 Sudoeste 14 Sur 0 -- -- 90
2020-11-14 12:00:00 17.7 8 Sur 13 Sur 0 -- -- 84
2020-11-14 11:00:00 16.9 2 Sudoeste 4 Sudoeste 0 -- -- 88
2020-11-14 10:00:00 16 0 Calma 5 Sudeste 0 -- -- 92
2020-11-14 09:00:00 15.2 0 Calma 2 Noroeste 0 -- -- 93
2020-11-14 08:00:00 15 0 Calma 3 Norte 0 -- -- 89
2020-11-14 07:00:00 14.7 2 Sudoeste 5 Sudoeste 0 -- -- 90
2020-11-14 06:00:00 14.8 0 Calma 3 Nordeste 0 -- -- 89
2020-11-14 05:00:00 15 0 Calma 3 Sudeste 0 -- -- 88
2020-11-14 04:00:00 15.2 2 Norte 5 Norte 0 -- -- 88
2020-11-14 03:00:00 15.5 0 Calma 4 Este 0 -- -- 85
2020-11-14 02:00:00 15.8 0 Calma 4 Sudeste 0 -- -- 84
2020-11-14 01:00:00 15.6 2 Norte 4 Norte 0 -- -- 86
2020-11-14 00:00:00 16 0 Calma 5 Norte 0 -- -- 84
2020-11-13 23:00:00 16.1 2 Norte 4 Norte 0 -- -- 83
2020-11-13 22:00:00 16.4 0 Calma 4 Nordeste 0 -- -- 81
2020-11-13 21:00:00 16.6 3 Norte 5 Norte 0 -- -- 76
2020-11-13 20:00:00 17 2 Norte 5 Norte 0 -- -- 74
2020-11-13 19:00:00 18 2 Este 7 Nordeste 0 -- -- 71
2020-11-13 18:00:00 19.5 5 Nordeste 6 Norte 0 -- -- 65
2020-11-13 17:00:00 21.3 4 Noroeste 8 Oeste 0 -- -- 53
2020-11-13 16:00:00 21.9 2 Sudoeste 9 Norte 0 -- -- 52
2020-11-13 15:00:00 21.5 5 Norte 13 Norte 0 -- -- 58
2020-11-13 14:00:00 20.5 3 Norte 14 Norte 0 -- -- 63
2020-11-13 13:00:00 19.8 8 Noroeste 16 Norte 0 -- -- 64
2020-11-13 12:00:00 17.5 9 Norte 17 Norte 0 -- -- 73
2020-11-13 11:00:00 14.8 8 Norte 19 Norte 0 -- -- 83
2020-11-13 10:00:00 12.4 9 Norte 17 Norte 0 -- -- 89
2020-11-13 09:00:00 10.1 6 Norte 13 Norte 0 -- -- 94
2020-11-13 08:00:00 9.2 5 Norte 17 Norte 0 -- -- 95
2020-11-13 07:00:00 9.3 8 Norte 15 Norte 0 -- -- 94
2020-11-13 06:00:00 9.9 8 Norte 14 Norte 0 -- -- 93
2020-11-13 05:00:00 10.3 4 Norte 11 Nordeste 0 -- -- 92
2020-11-13 04:00:00 10.3 6 Norte 15 Norte 0 -- -- 94
2020-11-13 03:00:00 10 3 Norte 10 Norte 0 -- -- 92
2020-11-13 02:00:00 10.1 5 Norte 9 Norte 0 -- -- 91
2020-11-13 01:00:00 9.9 3 Nordeste 5 Norte 0 -- -- 89
2020-11-13 00:00:00 10.5 2 Nordeste 9 Norte 0 -- -- 89
2020-11-12 23:00:00 11.1 3 Este 10 Sudeste 0 -- -- 88
2020-11-12 22:00:00 12.6 3 Norte 8 Norte 0 -- -- 85
2020-11-12 21:00:00 14.2 2 Norte 6 Norte 0 -- -- 79
2020-11-12 20:00:00 15.2 4 Norte 8 Este 0 -- -- 75
2020-11-12 19:00:00 16.7 4 Este 11 Sur 0 -- -- 70
2020-11-12 18:00:00 18.8 9 Sur 15 Sur 0 -- -- 62
2020-11-12 17:00:00 20.4 9 Nordeste 15 Nordeste 0 -- -- 52
2020-11-12 16:00:00 20 10 Norte 15 Norte 0 -- -- 57
2020-11-12 15:00:00 19.5 7 Norte 14 Norte 0 -- -- 61
2020-11-12 14:00:00 18.8 5 Nordeste 15 Este 0 -- -- 60
2020-11-12 13:00:00 18.1 5 Nordeste 14 Norte 0 -- -- 67
2020-11-12 12:00:00 15.6 6 Norte 19 Nordeste 0 -- -- 75
2020-11-12 11:00:00 12.8 8 Norte 17 Norte 0 -- -- 87
2020-11-12 10:00:00 11.6 9 Norte 16 Norte 0 -- -- 91
2020-11-12 09:00:00 10 6 Norte 13 Noroeste 0 -- -- 95
2020-11-12 08:00:00 9.6 5 Nordeste 11 Norte 0 -- -- 94
2020-11-12 07:00:00 10 5 Norte 10 Norte 0 -- -- 95
2020-11-12 06:00:00 10 3 Norte 9 Norte 0 -- -- 94
2020-11-12 05:00:00 10.6 2 Norte 12 Norte 0 -- -- 92
2020-11-12 04:00:00 10.9 6 Norte 12 Nordeste 0 -- -- 93
2020-11-12 03:00:00 11 5 Norte 11 Nordeste 0 -- -- 93
2020-11-12 02:00:00 10.8 6 Norte 13 Norte 0 -- -- 92
2020-11-12 01:00:00 11.2 4 Este 10 Norte 0 -- -- 90
2020-11-12 00:00:00 10.6 4 Norte 8 Norte 0 -- -- 92
2020-11-11 23:00:00 10.8 5 Norte 7 Norte 0 -- -- 91
2020-11-11 22:00:00 12 3 Nordeste 5 Este 0 -- -- 87
2020-11-11 21:00:00 13 0 Calma 5 Este 0 -- -- 85
2020-11-11 20:00:00 15.2 0 Calma 12 Sudoeste 0 -- -- 78
2020-11-11 19:00:00 16 4 Sudeste 7 Sudeste 0 -- -- 77
2020-11-11 18:00:00 18.6 4 Nordeste 13 Nordeste 0 -- -- 66
2020-11-11 17:00:00 20.6 8 Norte 13 Nordeste 0 -- -- 58
2020-11-11 16:00:00 21.2 6 Nordeste 12 Este 0 -- -- 56
2020-11-11 15:00:00 21.1 5 Oeste 11 Oeste 0 -- -- 55
2020-11-11 14:00:00 20.2 4 Nordeste 10 Nordeste 0 -- -- 57
2020-11-11 13:00:00 18.8 7 Norte 12 Norte 0 -- -- 64
2020-11-11 12:00:00 17.4 5 Norte 14 Norte 0 -- -- 69
2020-11-11 11:00:00 15.7 5 Norte 9 Norte 0 -- -- 79
2020-11-11 10:00:00 13 4 Norte 9 Norte 0 -- -- 88
2020-11-11 09:00:00 10.2 3 Norte 7 Norte 0 -- -- 96
2020-11-11 08:00:00 9 4 Norte 12 Norte 0 -- -- 95
2020-11-11 07:00:00 9.3 5 Norte 10 Norte 0 -- -- 95
2020-11-11 06:00:00 9.6 6 Norte 12 Nordeste 0 -- -- 94
2020-11-11 05:00:00 9.7 4 Norte 10 Norte 0 -- -- 93
2020-11-11 04:00:00 9.9 3 Nordeste 8 Nordeste 0 -- -- 92
2020-11-11 03:00:00 10.8 4 Nordeste 11 Nordeste 0 -- -- 91
2020-11-11 02:00:00 10.2 4 Nordeste 7 Norte 0 -- -- 92
2020-11-11 01:00:00 10.4 4 Nordeste 8 Norte 0 -- -- 90
2020-11-11 00:00:00 11.2 0 Calma 7 Norte 0 -- -- 88
2020-11-10 23:00:00 12.3 5 Este 12 Norte 0 -- -- 86
2020-11-10 22:00:00 12.6 0 Calma 5 Noroeste 0 -- -- 82
2020-11-10 21:00:00 13.5 3 Norte 7 Norte 0 -- -- 79
2020-11-10 20:00:00 14.8 4 Norte 7 Norte 0 -- -- 75
2020-11-10 19:00:00 16.1 4 Norte 10 Nordeste 0 -- -- 73
2020-11-10 18:00:00 19.4 8 Nordeste 14 Nordeste 0 -- -- 62
2020-11-10 17:00:00 20.6 9 Nordeste 16 Nordeste 0 -- -- 57
2020-11-10 16:00:00 20.8 8 Norte 18 Nordeste 0 -- -- 62
2020-11-10 15:00:00 20.1 10 Nordeste 21 Nordeste 0 -- -- 64
2020-11-10 14:00:00 19 18 Nordeste 30 Nordeste 0 -- -- 72
2020-11-10 13:00:00 17 18 Nordeste 28 Nordeste 0.2 -- -- 84
2020-11-10 12:00:00 14.1 12 Nordeste 27 Nordeste 0 -- -- 98
2020-11-10 11:00:00 12.3 9 Norte 17 Norte 0 -- -- 100
2020-11-10 10:00:00 10.4 9 Norte 24 Norte 0 -- -- 100
2020-11-10 09:00:00 9.1 16 Norte 23 Norte 0 -- -- 100
2020-11-10 08:00:00 8.8 10 Norte 18 Norte 0 -- -- 99
2020-11-10 07:00:00 9.4 6 Norte 14 Norte 0 -- -- 99
2020-11-10 06:00:00 9.1 6 Norte 16 Norte 0 -- -- 99
2020-11-10 05:00:00 9.2 5 Norte 9 Norte 0 -- -- 99
2020-11-10 04:00:00 9.3 3 Norte 9 Norte 0 -- -- 98
2020-11-10 03:00:00 9.2 4 Norte 6 Norte 0 -- -- 97
2020-11-10 02:00:00 9.3 0 Calma 5 Norte 0 -- -- 96
2020-11-10 01:00:00 9.8 0 Calma 4 Norte 0 -- -- 96
2020-11-10 00:00:00 10.3 0 Calma 6 Norte 0 -- -- 96
2020-11-09 23:00:00 10.6 3 Norte 4 Nordeste 0 -- -- 95
2020-11-09 22:00:00 11.4 2 Nordeste 4 Norte 0 -- -- 94
2020-11-09 21:00:00 12.2 2 Nordeste 6 Norte 0 -- -- 92
2020-11-09 20:00:00 13.6 0 Calma 5 Este 0 -- -- 87
2020-11-09 19:00:00 15.6 0 Calma 4 Sudoeste 0 -- -- 83
2020-11-09 18:00:00 18.9 3 Sudoeste 8 Sudoeste 0 -- -- 72
2020-11-09 17:00:00 19.7 3 Oeste 8 Sudoeste 0 -- -- 66
2020-11-09 16:00:00 18.8 0 Calma 9 Oeste 0 -- -- 72
2020-11-09 15:00:00 18.7 3 Sur 13 Noroeste 0 -- -- 74
2020-11-09 14:00:00 18.4 5 Sudoeste 12 Noroeste 0 -- -- 77
2020-11-09 13:00:00 17.2 3 Noroeste 9 Sur 0 -- -- 80
2020-11-09 12:00:00 15.7 4 Sudoeste 9 Sur 0 -- -- 90
2020-11-09 11:00:00 14.3 0 Calma 12 Nordeste 0 -- -- 97
2020-11-09 10:00:00 13.4 4 Norte 9 Norte 0 -- -- 98
2020-11-09 09:00:00 12.4 0 Calma 6 Norte 0 -- -- 98
2020-11-09 08:00:00 11.7 3 Norte 8 Noroeste 0 -- -- 99
2020-11-09 07:00:00 11.2 4 Norte 11 Norte 0 -- -- 98
2020-11-09 06:00:00 10.6 0 Calma 5 Norte 0 -- -- 97
2020-11-09 05:00:00 11 4 Norte 6 Norte 0 -- -- 98
2020-11-09 04:00:00 10.5 3 Norte 5 Norte 0 -- -- 97
2020-11-09 03:00:00 10.7 0 Calma 6 Norte 0 -- -- 96
2020-11-09 02:00:00 10.9 0 Calma 4 Norte 0 -- -- 95
2020-11-09 01:00:00 11.6 0 Calma 5 Norte 0 -- -- 95
2020-11-09 00:00:00 12.2 2 Norte 4 Norte 0 -- -- 95
2020-11-08 23:00:00 12.7 0 Calma 4 Norte 0 -- -- 92
2020-11-08 22:00:00 13.8 2 Norte 3 Norte 0 -- -- 90
2020-11-08 21:00:00 15 3 Norte 6 Norte 0 -- -- 88
2020-11-08 20:00:00 16.5 0 Calma 3 Norte 0 -- -- 85
2020-11-08 19:00:00 17.7 0 Calma 6 Nordeste 0 -- -- 82
2020-11-08 18:00:00 19.2 4 Noroeste 10 Oeste 0 -- -- 72
2020-11-08 17:00:00 21.1 6 Oeste 13 Oeste 0 -- -- 63
2020-11-08 16:00:00 21.9 5 Oeste 15 Oeste 0 -- -- 59
2020-11-08 15:00:00 21 6 Oeste 15 Sudoeste 0 -- -- 59
2020-11-08 14:00:00 21.1 8 Oeste 19 Sudoeste 0 -- -- 59
2020-11-08 13:00:00 18.8 6 Norte 14 Norte 0 -- -- 78
2020-11-08 12:00:00 17.2 7 Norte 14 Norte 0 -- -- 82
2020-11-08 11:00:00 15.1 8 Norte 15 Norte 0 -- -- 89
2020-11-08 10:00:00 13.2 7 Norte 15 Norte 0.2 -- -- 95
2020-11-08 09:00:00 11 7 Norte 15 Nordeste 0 -- -- 99
2020-11-08 08:00:00 9.8 5 Norte 13 Norte 0 -- -- 98
2020-11-08 07:00:00 10.2 8 Norte 12 Norte 0 -- -- 98
2020-11-08 06:00:00 10.5 5 Norte 12 Norte 0 -- -- 97
2020-11-08 05:00:00 11 6 Norte 12 Norte 0 -- -- 97
2020-11-08 04:00:00 11 4 Norte 13 Norte 0 -- -- 97
2020-11-08 03:00:00 11.1 5 Nordeste 10 Nordeste 0 -- -- 97
2020-11-08 02:00:00 10.8 2 Norte 8 Norte 0 -- -- 97
2020-11-08 01:00:00 10.7 3 Nordeste 8 Norte 0 -- -- 96
2020-11-08 00:00:00 11.1 2 Nordeste 6 Este 0 -- -- 96
2020-11-07 23:00:00 11.5 0 Calma 6 Norte 0 -- -- 95
2020-11-07 22:00:00 12.2 3 Norte 6 Norte 0 -- -- 94
2020-11-07 21:00:00 12.8 3 Norte 5 Norte 0 -- -- 93
2020-11-07 20:00:00 14.1 3 Este 7 Norte 0 -- -- 90
2020-11-07 19:00:00 16.1 0 Calma 4 Este 0 -- -- 85
2020-11-07 18:00:00 18.8 2 Sur 18 Sudoeste 0 -- -- 76
2020-11-07 17:00:00 19.8 13 Sudoeste 23 Sudoeste 0 -- -- 68
2020-11-07 16:00:00 19.8 11 Sudoeste 29 Sudoeste 0 -- -- 67
2020-11-07 15:00:00 18.9 14 Oeste 22 Sudoeste 0 -- -- 71
2020-11-07 14:00:00 18.7 13 Sudoeste 26 Sur 0 -- -- 76
2020-11-07 13:00:00 18.3 21 Sudoeste 33 Sudoeste 0 -- -- 79
2020-11-07 12:00:00 17.2 22 Sudoeste 34 Sudoeste 0.2 -- -- 82
2020-11-07 11:00:00 16.5 21 Sudoeste 36 Sur 0 -- -- 89
2020-11-07 10:00:00 14.6 16 Sudoeste 26 Sudoeste 0.6 -- -- 96
2020-11-07 09:00:00 14.1 12 Sudoeste 22 Sudoeste 0 -- -- 97
2020-11-07 08:00:00 13 8 Sudoeste 13 Sudoeste 0 -- -- 97
2020-11-07 07:00:00 12.4 4 Norte 12 Norte 2 -- -- 97
2020-11-07 06:00:00 12.3 6 Norte 16 Norte 1.2 -- -- 96
2020-11-07 05:00:00 12.4 0 Calma 9 Sudeste 0 -- -- 95
2020-11-07 04:00:00 12.5 4 Este 37 Sudoeste 2.8 -- -- 94
2020-11-07 03:00:00 14.3 28 Oeste 54 Oeste 1.4 -- -- 83
2020-11-07 02:00:00 16.5 15 Sur 33 Sur 0 -- -- 79
2020-11-07 01:00:00 16.4 12 Sur 26 Sur 0 -- -- 79
2020-11-07 00:00:00 16.3 16 Sudeste 30 Sudeste 0.2 -- -- 84
2020-11-06 23:00:00 16.1 12 Sudeste 42 Sur 1.4 -- -- 87
2020-11-06 22:00:00 17.2 9 Sudeste 25 Sudeste 0.2 -- -- 84
2020-11-06 21:00:00 18.4 15 Sur 25 Sudoeste 0 -- -- 79
2020-11-06 20:00:00 18.8 4 Norte 17 Este 0 -- -- 78
2020-11-06 19:00:00 19.4 8 Oeste 20 Oeste 0 -- -- 76
2020-11-06 18:00:00 19.8 4 Sudoeste 10 Noroeste 0 -- -- 78
2020-11-06 17:00:00 20.8 12 Oeste 27 Oeste 0 -- -- 70
2020-11-06 16:00:00 23.4 4 Sudoeste 17 Noroeste 0 -- -- 63
2020-11-06 15:00:00 21.7 3 Sur 9 Noroeste 0 -- -- 72
2020-11-06 14:00:00 20.5 4 Norte 15 Norte 0 -- -- 76
2020-11-06 13:00:00 20.6 13 Norte 18 Norte 0 -- -- 74
2020-11-06 12:00:00 18.8 9 Norte 15 Norte 0 -- -- 77
2020-11-06 11:00:00 17.2 9 Norte 19 Norte 0 -- -- 79
2020-11-06 10:00:00 15.3 9 Norte 18 Norte 0 -- -- 80
2020-11-06 09:00:00 14 6 Norte 19 Norte 0 -- -- 85
2020-11-06 08:00:00 14 15 Norte 23 Norte 0 -- -- 83
2020-11-06 07:00:00 14.8 15 Nordeste 23 Nordeste 0 -- -- 78
2020-11-06 06:00:00 13.5 6 Norte 20 Norte 0 -- -- 86
2020-11-06 05:00:00 13.5 10 Norte 24 Norte 0 -- -- 86
2020-11-06 04:00:00 14 9 Norte 19 Nordeste 0 -- -- 85
2020-11-06 03:00:00 14.3 9 Norte 17 Nordeste 0 -- -- 85
2020-11-06 02:00:00 14.4 5 Norte 24 Norte 0 -- -- 86
2020-11-06 01:00:00 14 7 Norte 15 Nordeste 0 -- -- 89
2020-11-06 00:00:00 13.5 8 Norte 13 Noroeste 0 -- -- 91